createdAt,value
2022-09-03T00:00:52.421Z,10.98
2022-09-03T00:04:06.996Z,10.95
2022-09-03T00:07:15.610Z,10.90
2022-09-03T00:10:26.553Z,10.86
2022-09-03T00:13:36.736Z,10.82
2022-09-03T00:16:49.545Z,10.78
2022-09-03T00:19:57.962Z,10.78
2022-09-03T00:23:04.112Z,10.80
2022-09-03T00:26:12.482Z,10.85
2022-09-03T00:29:21.814Z,10.90
2022-09-03T00:32:34.141Z,10.95
2022-09-03T00:36:03.696Z,11.00
2022-09-03T00:39:07.429Z,11.05
2022-09-03T00:42:31.538Z,11.09
2022-09-03T00:46:07.281Z,11.14
2022-09-03T00:49:28.295Z,11.16
2022-09-03T00:52:48.474Z,11.14
2022-09-03T00:55:58.841Z,11.10
2022-09-03T00:59:18.113Z,11.06
2022-09-03T01:02:22.591Z,11.05
2022-09-03T01:05:27.489Z,11.09
2022-09-03T01:08:51.677Z,11.14
2022-09-03T01:12:18.479Z,11.17
2022-09-03T01:15:34.562Z,11.21
2022-09-03T01:18:49.026Z,11.24
2022-09-03T01:22:06.962Z,11.26
2022-09-03T01:25:24.235Z,11.29
2022-09-03T01:28:54.946Z,11.31
2022-09-03T01:32:07.822Z,11.33
2022-09-03T01:35:28.208Z,11.32
2022-09-03T01:38:48.495Z,11.32
2022-09-03T01:42:20.762Z,11.30
2022-09-03T01:45:41.871Z,11.29
2022-09-03T01:49:07.558Z,11.26
2022-09-03T01:52:27.364Z,11.23
2022-09-03T01:55:37.050Z,11.18
2022-09-03T01:58:39.207Z,11.13
2022-09-03T02:01:58.982Z,11.07
2022-09-03T02:05:10.441Z,10.99
2022-09-03T02:08:12.299Z,10.92
2022-09-03T02:11:14.225Z,10.85
2022-09-03T02:14:16.165Z,10.79
2022-09-03T02:17:18.422Z,10.72
2022-09-03T02:20:23.225Z,10.65
2022-09-03T02:23:28.233Z,10.59
2022-09-03T02:26:30.343Z,10.53
2022-09-03T02:29:32.996Z,10.48
2022-09-03T02:32:34.864Z,10.43
2022-09-03T02:35:36.859Z,10.39
2022-09-03T02:38:42.135Z,10.36
2022-09-03T02:41:45.005Z,10.33
2022-09-03T02:44:50.399Z,10.32
2022-09-03T02:47:56.408Z,10.31
2022-09-03T02:50:58.500Z,10.30
2022-09-03T02:54:00.203Z,10.29
2022-09-03T02:57:02.872Z,10.27
2022-09-03T03:00:05.110Z,10.25
2022-09-03T03:03:07.305Z,10.15
2022-09-03T03:06:09.429Z,9.93
2022-09-03T03:09:11.534Z,9.71
2022-09-03T03:12:13.369Z,9.55
2022-09-03T03:15:15.954Z,9.44
2022-09-03T03:18:17.879Z,9.37
2022-09-03T03:21:19.963Z,9.32
2022-09-03T03:24:21.737Z,9.29
2022-09-03T03:27:24.024Z,9.26
2022-09-03T03:30:25.780Z,9.23
2022-09-03T03:33:27.516Z,9.19
2022-09-03T03:36:32.037Z,9.16
2022-09-03T03:39:33.828Z,9.16
2022-09-03T03:42:35.747Z,9.15
2022-09-03T03:45:37.645Z,9.12
2022-09-03T03:48:39.804Z,9.09
2022-09-03T03:51:41.653Z,9.05
2022-09-03T03:54:43.330Z,9.04
2022-09-03T03:57:44.980Z,9.04
2022-09-03T04:00:49.733Z,9.05
2022-09-03T04:03:52.270Z,9.03
2022-09-03T04:06:56.634Z,8.99
2022-09-03T04:09:58.439Z,8.97
2022-09-03T04:13:01.257Z,8.95
2022-09-03T04:16:07.094Z,8.93
2022-09-03T04:19:08.952Z,8.82
2022-09-03T04:22:10.875Z,8.72
2022-09-03T04:25:12.654Z,8.67
2022-09-03T04:28:15.288Z,8.66
2022-09-03T04:31:19.657Z,8.64
2022-09-03T04:34:21.906Z,8.66
2022-09-03T04:37:23.742Z,8.72
2022-09-03T04:40:25.508Z,8.79
2022-09-03T04:43:28.776Z,8.87
2022-09-03T04:46:33.491Z,8.99
2022-09-03T04:49:35.805Z,9.18
2022-09-03T04:52:38.563Z,9.42
2022-09-03T04:55:40.229Z,9.63
2022-09-03T04:58:44.116Z,9.80
2022-09-03T05:01:46.077Z,9.91
2022-09-03T05:04:48.038Z,10.00
2022-09-03T05:07:49.872Z,10.11
2022-09-03T05:11:00.067Z,10.24
2022-09-03T05:14:01.984Z,10.37
2022-09-03T05:17:03.880Z,10.51
2022-09-03T05:20:10.200Z,10.65
2022-09-03T05:23:11.916Z,10.83
2022-09-03T05:26:16.119Z,11.01
2022-09-03T05:29:20.017Z,11.20
2022-09-03T05:32:21.906Z,11.36
2022-09-03T05:35:26.066Z,11.43
2022-09-03T05:38:32.393Z,11.57
2022-09-03T05:41:34.740Z,11.73
2022-09-03T05:44:37.119Z,11.90
2022-09-03T05:47:40.307Z,12.06
2022-09-03T05:50:42.165Z,12.23
2022-09-03T05:53:47.501Z,12.35
2022-09-03T05:56:49.886Z,12.43
2022-09-03T05:59:52.653Z,12.51
2022-09-03T06:02:54.745Z,12.60
2022-09-03T06:05:56.667Z,12.63
2022-09-03T06:09:00.695Z,12.68
2022-09-03T06:12:03.988Z,12.80
2022-09-03T06:15:07.063Z,13.02
2022-09-03T06:18:08.838Z,13.49
2022-09-03T06:21:10.705Z,13.93
2022-09-03T06:24:28.350Z,14.12
2022-09-03T06:27:30.841Z,14.34
2022-09-03T06:30:32.538Z,14.75
2022-09-03T06:33:36.233Z,15.32
2022-09-03T06:36:38.019Z,15.74
2022-09-03T06:39:39.973Z,15.84
2022-09-03T06:42:45.858Z,15.76
2022-09-03T06:46:00.512Z,15.86
2022-09-03T06:49:02.904Z,15.79
2022-09-03T06:52:04.779Z,15.59
2022-09-03T06:55:07.014Z,15.70
2022-09-03T06:58:09.377Z,15.81
2022-09-03T07:01:17.197Z,15.79
2022-09-03T07:04:20.166Z,15.69
2022-09-03T07:07:22.408Z,15.59
2022-09-03T07:10:24.438Z,15.58
2022-09-03T07:13:26.833Z,15.57
2022-09-03T07:16:37.244Z,15.46
2022-09-03T07:19:39.247Z,15.27
2022-09-03T07:22:40.950Z,15.40
2022-09-03T07:25:42.721Z,15.55
2022-09-03T07:28:46.076Z,15.66
2022-09-03T07:31:51.397Z,15.76
2022-09-03T07:34:53.903Z,15.63
2022-09-03T07:37:55.557Z,15.43
2022-09-03T07:41:00.125Z,15.26
2022-09-03T07:44:05.636Z,15.20
2022-09-03T07:47:07.453Z,15.25
2022-09-03T07:50:09.435Z,15.28
2022-09-03T07:53:11.169Z,15.33
2022-09-03T07:56:13.177Z,15.51
2022-09-03T07:59:14.898Z,15.49
2022-09-03T08:02:16.566Z,15.49
2022-09-03T08:05:21.361Z,15.60
2022-09-03T08:08:23.926Z,15.92
2022-09-03T08:11:26.376Z,16.17
2022-09-03T08:14:30.520Z,16.36
2022-09-03T08:17:32.178Z,16.46
2022-09-03T08:20:34.343Z,16.39
2022-09-03T08:23:40.199Z,16.52
2022-09-03T08:26:46.227Z,16.58
2022-09-03T08:29:52.239Z,16.72
2022-09-03T08:32:56.228Z,16.79
2022-09-03T08:35:58.139Z,16.72
2022-09-03T08:39:08.171Z,16.70
2022-09-03T08:42:21.959Z,16.63
2022-09-03T08:45:24.063Z,16.61
2022-09-03T08:48:28.408Z,16.74
2022-09-03T08:51:32.094Z,16.78
2022-09-03T08:54:33.854Z,16.72
2022-09-03T08:57:41.983Z,16.65
2022-09-03T09:00:48.963Z,16.55
2022-09-03T09:04:07.069Z,16.48
2022-09-03T09:07:18.813Z,16.58
2022-09-03T09:10:29.395Z,16.48
2022-09-03T09:14:00.300Z,16.34
2022-09-03T09:17:23.443Z,16.24
2022-09-03T09:21:07.929Z,16.32
2022-09-03T09:24:19.486Z,16.44
2022-09-03T09:27:21.857Z,16.40
2022-09-03T09:30:23.887Z,16.35
2022-09-03T09:33:26.054Z,16.23
2022-09-03T09:36:28.549Z,16.09
2022-09-03T09:39:32.062Z,16.10
2022-09-03T09:42:33.941Z,16.22
2022-09-03T09:45:35.906Z,16.29
2022-09-03T09:48:39.528Z,16.34
2022-09-03T09:51:41.331Z,16.41
2022-09-03T09:54:48.090Z,16.49
2022-09-03T09:57:53.721Z,16.80
2022-09-03T10:01:00.236Z,17.02
2022-09-03T10:04:10.816Z,17.19
2022-09-03T10:07:33.800Z,17.22
2022-09-03T10:10:43.229Z,17.04
2022-09-03T10:13:48.858Z,16.80
2022-09-03T10:17:04.397Z,16.63
2022-09-03T10:20:31.163Z,16.69
2022-09-03T10:23:43.782Z,16.78
2022-09-03T10:26:46.613Z,16.77
2022-09-03T10:29:49.014Z,16.78
2022-09-03T10:33:05.572Z,16.97
2022-09-03T10:36:20.246Z,17.20
2022-09-03T10:39:27.938Z,17.44
2022-09-03T10:42:45.755Z,17.60
2022-09-03T10:46:08.337Z,17.77
2022-09-03T10:49:31.126Z,17.98
2022-09-03T10:52:45.050Z,18.22
2022-09-03T10:56:02.500Z,18.47
2022-09-03T10:59:34.233Z,18.59
2022-09-03T11:02:53.317Z,18.29
2022-09-03T11:06:06.489Z,18.20
2022-09-03T11:09:14.314Z,18.07
2022-09-03T11:12:47.119Z,18.06
2022-09-03T11:15:52.549Z,17.81
2022-09-03T11:18:58.061Z,17.61
2022-09-03T11:21:59.940Z,17.54
2022-09-03T11:25:02.717Z,17.36
2022-09-03T11:28:21.247Z,17.21
2022-09-03T11:32:00.526Z,17.12
2022-09-03T11:35:02.374Z,16.98
2022-09-03T11:38:21.259Z,16.89
2022-09-03T11:41:35.021Z,16.84
2022-09-03T11:44:51.374Z,16.90
2022-09-03T11:47:54.366Z,16.97
2022-09-03T11:50:56.163Z,17.04
2022-09-03T11:54:11.460Z,17.23
2022-09-03T11:57:24.179Z,17.42
2022-09-03T12:00:26.512Z,17.52
2022-09-03T12:03:36.513Z,17.62
2022-09-03T12:06:56.922Z,17.94
2022-09-03T12:10:01.650Z,18.15
2022-09-03T12:13:17.457Z,18.14
2022-09-03T12:16:37.727Z,18.05
2022-09-03T12:19:56.918Z,17.92
2022-09-03T12:22:58.548Z,17.96
2022-09-03T12:26:07.234Z,18.06
2022-09-03T12:29:22.692Z,18.21
2022-09-03T12:32:38.412Z,18.42
2022-09-03T12:39:13.404Z,18.88
2022-09-03T12:42:21.269Z,18.97
2022-09-03T12:45:25.251Z,19.09
2022-09-03T12:48:27.488Z,19.05
2022-09-03T12:51:54.238Z,19.03
2022-09-03T12:55:00.956Z,19.09
2022-09-03T12:58:14.008Z,18.76
2022-09-03T13:01:45.361Z,18.43
2022-09-03T13:04:47.316Z,18.35
2022-09-03T13:07:53.149Z,18.37
2022-09-03T13:10:57.573Z,18.33
2022-09-03T13:14:06.260Z,18.30
2022-09-03T13:17:10.805Z,18.47
2022-09-03T13:20:25.101Z,18.85
2022-09-03T13:23:53.310Z,19.45
2022-09-03T13:27:25.307Z,19.85
2022-09-03T13:30:40.352Z,19.65
2022-09-03T13:33:45.663Z,19.33
2022-09-03T13:36:57.723Z,19.14
2022-09-03T13:40:04.347Z,19.00
2022-09-03T13:43:21.931Z,19.11
2022-09-03T13:46:52.794Z,19.26
2022-09-03T13:50:22.655Z,19.42
2022-09-03T13:53:42.681Z,19.58
2022-09-03T13:57:08.054Z,19.66
2022-09-03T14:00:12.663Z,19.96
2022-09-03T14:03:37.215Z,20.09
2022-09-03T14:07:03.228Z,20.32
2022-09-03T14:10:11.778Z,20.29
2022-09-03T14:13:25.215Z,20.10
2022-09-03T14:16:36.495Z,20.04
2022-09-03T14:19:49.421Z,20.07
2022-09-03T14:22:59.640Z,20.24
2022-09-03T14:26:04.401Z,20.30
2022-09-03T14:29:12.512Z,20.20
2022-09-03T14:32:30.788Z,19.98
2022-09-03T14:35:51.408Z,19.79
2022-09-03T14:39:24.475Z,19.52
2022-09-03T14:42:53.476Z,19.24
2022-09-03T14:46:06.814Z,19.06
2022-09-03T14:49:49.939Z,19.06
2022-09-03T14:53:00.041Z,19.07
2022-09-03T14:56:18.563Z,18.92
2022-09-03T14:59:47.613Z,18.93
2022-09-03T15:03:13.964Z,18.92
2022-09-03T15:06:53.673Z,18.85
2022-09-03T15:10:13.825Z,18.72
2022-09-03T15:13:23.099Z,18.63
2022-09-03T15:16:38.682Z,18.48
2022-09-03T15:19:56.048Z,18.41
2022-09-03T15:23:42.596Z,18.29
2022-09-03T15:27:09.777Z,18.16
2022-09-03T15:30:13.604Z,18.08
2022-09-03T15:33:36.029Z,18.05
2022-09-03T15:36:41.781Z,18.04
2022-09-03T15:39:45.134Z,18.06
2022-09-03T15:42:48.835Z,18.00
2022-09-03T15:46:01.136Z,17.97
2022-09-03T15:49:21.774Z,17.91
2022-09-03T15:52:47.666Z,17.84
2022-09-03T15:56:19.194Z,17.76
2022-09-03T15:59:33.338Z,17.72
2022-09-03T16:02:52.441Z,17.69
2022-09-03T16:06:02.350Z,17.67
2022-09-03T16:09:27.200Z,17.62
2022-09-03T16:12:35.036Z,17.54
2022-09-03T16:15:44.106Z,17.43
2022-09-03T16:18:57.833Z,17.35
2022-09-03T16:22:02.305Z,17.26
2022-09-03T16:25:38.774Z,17.19
2022-09-03T16:28:59.301Z,17.11
2022-09-03T16:32:17.429Z,17.06
2022-09-03T16:35:28.329Z,17.03
2022-09-03T16:38:55.297Z,16.99
2022-09-03T16:42:25.148Z,16.97
2022-09-03T16:46:08.878Z,16.93
2022-09-03T16:49:18.342Z,16.87
2022-09-03T16:52:59.350Z,16.82
2022-09-03T16:56:16.370Z,16.76
2022-09-03T16:59:33.435Z,16.72
2022-09-03T17:02:59.069Z,16.72
2022-09-03T17:06:38.635Z,16.71
2022-09-03T17:10:11.105Z,16.66
2022-09-03T17:13:31.881Z,16.63
2022-09-03T17:16:42.628Z,16.61
2022-09-03T17:19:51.653Z,16.61
2022-09-03T17:23:19.860Z,16.59
2022-09-03T17:26:29.996Z,16.55
2022-09-03T17:29:50.662Z,16.50
2022-09-03T17:33:27.692Z,16.46
2022-09-03T17:36:31.432Z,16.41
2022-09-03T17:39:54.370Z,16.37
2022-09-03T17:43:03.651Z,16.32
2022-09-03T17:46:08.518Z,16.29
2022-09-03T17:49:17.430Z,16.24
2022-09-03T17:52:29.728Z,16.19
2022-09-03T17:55:42.332Z,16.10
2022-09-03T17:58:51.257Z,16.04
2022-09-03T18:01:59.127Z,15.95
2022-09-03T18:05:07.642Z,15.85
2022-09-03T18:08:19.202Z,15.76
2022-09-03T18:11:43.435Z,15.67
2022-09-03T18:14:51.794Z,15.60
2022-09-03T18:18:08.046Z,15.54
2022-09-03T18:21:32.071Z,15.49
2022-09-03T18:25:02.789Z,15.46
2022-09-03T18:28:26.345Z,15.44
2022-09-03T18:31:46.865Z,15.39
2022-09-03T18:35:07.381Z,15.30
2022-09-03T18:38:28.317Z,15.25
2022-09-03T18:42:06.763Z,15.21
2022-09-03T18:49:58.988Z,15.16
2022-09-03T18:53:29.665Z,15.13
2022-09-03T18:57:07.094Z,15.10
2022-09-03T19:00:31.153Z,15.05
2022-09-03T19:04:03.957Z,15.01
2022-09-03T19:07:30.305Z,14.97
2022-09-03T19:11:26.589Z,14.93
2022-09-03T19:15:10.138Z,14.88
2022-09-03T19:18:58.715Z,14.82
2022-09-03T19:22:27.061Z,14.75
2022-09-03T19:25:49.131Z,14.68
2022-09-03T19:29:15.763Z,14.61
2022-09-03T19:32:39.403Z,14.52
2022-09-03T19:36:13.723Z,14.44
2022-09-03T19:39:59.550Z,14.36
2022-09-03T19:43:41.263Z,14.27
2022-09-03T19:47:01.478Z,14.16
2022-09-03T19:50:40.688Z,14.05
2022-09-03T19:54:01.176Z,13.95
2022-09-03T19:57:22.085Z,13.86
2022-09-03T20:00:42.601Z,13.78
2022-09-03T20:04:03.551Z,13.69
2022-09-03T20:07:27.809Z,13.63
2022-09-03T20:10:29.545Z,13.58
2022-09-03T20:13:52.073Z,13.52
2022-09-03T20:17:10.278Z,13.43
2022-09-03T20:20:18.029Z,13.34
2022-09-03T20:23:33.043Z,13.26
2022-09-03T20:26:42.241Z,13.18
2022-09-03T20:30:19.716Z,13.09
2022-09-03T20:33:32.691Z,13.00
2022-09-03T20:36:49.755Z,12.92
2022-09-03T20:39:57.571Z,12.84
2022-09-03T20:43:05.394Z,12.76
2022-09-03T20:46:10.000Z,12.69
2022-09-03T20:49:19.061Z,12.62
2022-09-03T20:52:41.170Z,12.55
2022-09-03T20:55:45.259Z,12.47
2022-09-03T20:59:17.225Z,12.40
2022-09-03T21:02:37.914Z,12.32
2022-09-03T21:05:58.507Z,12.23
2022-09-03T21:09:20.991Z,12.20
2022-09-03T21:12:41.634Z,12.16
2022-09-03T21:15:50.321Z,12.11
2022-09-03T21:19:32.238Z,12.06
2022-09-03T21:22:48.738Z,11.98
2022-09-03T21:26:21.618Z,11.88
2022-09-03T21:29:29.711Z,11.78
2022-09-03T21:32:40.014Z,11.68
2022-09-03T21:35:50.751Z,11.59
2022-09-03T21:39:07.926Z,11.52
2022-09-03T21:42:36.624Z,11.46
2022-09-03T21:45:43.902Z,11.39
2022-09-03T21:49:00.861Z,11.37
2022-09-03T21:52:09.224Z,11.36
2022-09-03T21:55:42.052Z,11.38
2022-09-03T21:59:16.741Z,11.43
2022-09-03T22:02:25.615Z,11.44
2022-09-03T22:05:46.655Z,11.44
2022-09-03T22:08:59.390Z,11.40
2022-09-03T22:12:33.321Z,11.35
2022-09-03T22:15:38.380Z,11.34
2022-09-03T22:18:40.193Z,11.32
2022-09-03T22:22:00.002Z,11.31
2022-09-03T22:25:09.340Z,11.27
2022-09-03T22:28:18.093Z,11.27
2022-09-03T22:31:39.305Z,11.26
2022-09-03T22:34:44.371Z,11.20
2022-09-03T22:38:13.581Z,11.11
2022-09-03T22:41:34.830Z,11.00
2022-09-03T22:45:00.653Z,10.93
2022-09-03T22:48:19.939Z,10.86
2022-09-03T22:51:22.121Z,10.79
2022-09-03T22:54:37.026Z,10.74
2022-09-03T22:57:46.534Z,10.71
2022-09-03T23:01:18.952Z,10.66
2022-09-03T23:04:42.161Z,10.62
2022-09-03T23:07:54.835Z,10.54
2022-09-03T23:11:03.907Z,10.48
2022-09-03T23:14:09.861Z,10.40
2022-09-03T23:20:34.858Z,10.27
2022-09-03T23:23:41.129Z,10.21
2022-09-03T23:26:52.580Z,10.14
2022-09-03T23:29:55.307Z,10.04
2022-09-03T23:32:59.143Z,9.97
2022-09-03T23:36:08.473Z,9.90
2022-09-03T23:39:35.769Z,9.85
2022-09-03T23:42:49.023Z,9.82
2022-09-03T23:46:04.025Z,9.80
2022-09-03T23:49:16.859Z,9.77
2022-09-03T23:52:38.046Z,9.72
2022-09-03T23:55:58.858Z,9.68
2022-09-03T23:59:40.783Z,9.66
